Time;durP1;ratioP1;P1;durP2;ratioP2;P2;SDS_P1;SDS_P2;PMS_P1;PMS_P2;Temp;Humidity;BMP_temperature;BMP_pressure;BME280_temperature;BME280_humidity;BME280_pressure;Samples;Min_cycle;Max_cycle;Signal;HPM_P1;HPM_P2
2024/01/04 00:01:13;;;;;;;;;;;;;;;;;;5080785;28;1386;-55
2024/01/04 00:03:39;;;;;;;;;;;;;;;;;;5074512;28;1937;-56
2024/01/04 00:06:04;;;;;;;;;;;;;;;;;;5071769;28;1171;-57
2024/01/04 00:08:31;;;;;;;;;;;;;;;;;;5083955;28;1227;-57
2024/01/04 00:10:57;;;;;;;;;;;;;;;;;;5089108;28;1215;-57
2024/01/04 00:13:23;;;;;;;;;;;;;;;;;;5070636;28;1145;-56
2024/01/04 00:15:48;;;;;;;;;;;;;;;;;;5080017;28;1182;-56
2024/01/04 00:18:13;;;;;;;;;;;;;;;;;;5085433;28;1182;-57
2024/01/04 00:20:38;;;;;;;;;;;;;;;;;;5072935;28;1156;-57
2024/01/04 00:23:04;;;;;;;;;;;;;;;;;;5073905;28;1923;-56
2024/01/04 00:25:29;;;;;;;;;;;;;;;;;;5073247;28;809;-57
2024/01/04 00:27:54;;;;;;;;;;;;;;;;;;5072227;28;1975;-56
2024/01/04 00:30:19;;;;;;;;;;;;;;;;;;5074502;28;919;-57
2024/01/04 00:32:45;;;;;;;;;;;;;;;;;;5075477;28;896;-57
2024/01/04 00:35:10;;;;;;;;;;;;;;;;;;5074576;28;908;-56
2024/01/04 00:37:35;;;;;;;;;;;;;;;;;;5074325;28;995;-55
2024/01/04 00:40:00;;;;;;;;;;;;;;;;;;5074317;28;901;-57
2024/01/04 00:42:26;;;;;;;;;;;;;;;;;;5074697;28;1914;-57
2024/01/04 00:44:51;;;;;;;;;;;;;;;;;;5074350;28;1046;-56
2024/01/04 00:47:16;;;;;;;;;;;;;;;;;;5074640;28;832;-57
2024/01/04 00:49:42;;;;;;;;;;;;;;;;;;5074253;28;892;-57
2024/01/04 00:52:07;;;;;;;;;;;;;;;;;;5074347;28;793;-58
2024/01/04 00:54:32;;;;;;;;;;;;;;;;;;5074473;28;933;-58
2024/01/04 00:56:58;;;;;;;;;;;;;;;;;;5074039;28;916;-57
2024/01/04 00:59:23;;;;;;;;;;;;;;;;;;5074360;28;908;-57
2024/01/04 01:01:48;;;;;;;;;;;;;;;;;;5071961;28;1922;-58
2024/01/04 01:04:13;;;;;;;;;;;;;;;;;;5075322;28;1227;-58
2024/01/04 01:06:39;;;;;;;;;;;;;;;;;;5076271;28;1179;-58
2024/01/04 01:09:05;;;;;;;;;;;;;;;;;;5088583;28;1143;-58
2024/01/04 01:11:30;;;;;;;;;;;;;;;;;;5074056;28;1226;-58
2024/01/04 01:13:55;;;;;;;;;;;;;;;;;;5080034;28;1140;-58
2024/01/04 01:16:21;;;;;;;;;;;;;;;;;;5078346;28;1281;-57
2024/01/04 01:18:46;;;;;;;;;;;;;;;;;;5074841;28;1135;-58
2024/01/04 01:21:11;;;;;;;;;;;;;;;;;;5073411;28;1183;-57
2024/01/04 01:23:36;;;;;;;;;;;;;;;;;;5074387;28;1902;-57
2024/01/04 01:26:02;;;;;;;;;;;;;;;;;;5072572;28;817;-58
2024/01/04 01:28:28;;;;;;;;;;;;;;;;;;5073828;28;845;-57
2024/01/04 01:30:53;;;;;;;;;;;;;;;;;;5073766;28;1020;-57
2024/01/04 01:33:19;;;;;;;;;;;;;;;;;;5073722;28;844;-57
2024/01/04 01:35:44;;;;;;;;;;;;;;;;;;5073653;28;801;-57
2024/01/04 01:38:10;;;;;;;;;;;;;;;;;;5074025;28;1000;-57
2024/01/04 01:40:35;;;;;;;;;;;;;;;;;;5072904;28;1612;-57
2024/01/04 01:43:01;;;;;;;;;;;;;;;;;;5073599;28;1964;-58
2024/01/04 01:45:26;;;;;;;;;;;;;;;;;;5074327;28;781;-57
2024/01/04 01:47:51;;;;;;;;;;;;;;;;;;5074370;28;793;-58
2024/01/04 01:50:20;;;;;;;;;;;;;;;;;;5074425;28;1042;-57
2024/01/04 01:52:46;;;;;;;;;;;;;;;;;;5074550;28;895;-58
2024/01/04 01:55:13;;;;;;;;;;;;;;;;;;5074514;28;912;-57
2024/01/04 01:57:38;;;;;;;;;;;;;;;;;;5074936;28;845;-57
2024/01/04 02:00:04;;;;;;;;;;;;;;;;;;5074650;28;931;-57
2024/01/04 02:02:29;;;;;;;;;;;;;;;;;;5073952;28;1879;-57
2024/01/04 02:04:54;;;;;;;;;;;;;;;;;;5074031;28;912;-57
2024/01/04 02:07:20;;;;;;;;;;;;;;;;;;5072641;28;1286;-58
2024/01/04 02:09:45;;;;;;;;;;;;;;;;;;5071023;28;1191;-57
2024/01/04 02:12:13;;;;;;;;;;;;;;;;;;5084925;28;1218;-57
2024/01/04 02:14:38;;;;;;;;;;;;;;;;;;5090322;28;1131;-57
2024/01/04 02:17:04;;;;;;;;;;;;;;;;;;5074968;28;1141;-57
2024/01/04 02:19:30;;;;;;;;;;;;;;;;;;5074801;28;1163;-57
2024/01/04 02:21:55;;;;;;;;;;;;;;;;;;5077244;28;1985;-56
2024/01/04 02:24:20;;;;;;;;;;;;;;;;;;5077595;28;947;-58
2024/01/04 02:26:45;;;;;;;;;;;;;;;;;;5076384;28;1022;-58
2024/01/04 02:29:11;;;;;;;;;;;;;;;;;;5077556;28;884;-58
2024/01/04 02:31:36;;;;;;;;;;;;;;;;;;5077288;28;991;-57
2024/01/04 02:34:02;;;;;;;;;;;;;;;;;;5077229;28;911;-58
2024/01/04 02:36:27;;;;;;;;;;;;;;;;;;5076481;28;1070;-57
2024/01/04 02:38:52;;;;;;;;;;;;;;;;;;5076954;28;1006;-57
2024/01/04 02:41:17;;;;;;;;;;;;;;;;;;5076647;28;884;-57
2024/01/04 02:43:43;;;;;;;;;;;;;;;;;;5076495;28;1894;-56
2024/01/04 02:46:08;;;;;;;;;;;;;;;;;;5077087;28;904;-58
2024/01/04 02:48:33;;;;;;;;;;;;;;;;;;5076828;28;812;-58
2024/01/04 02:50:58;;;;;;;;;;;;;;;;;;5076550;28;896;-56
2024/01/04 02:53:24;;;;;;;;;;;;;;;;;;5076467;28;917;-57
2024/01/04 02:55:49;;;;;;;;;;;;;;;;;;5077003;28;809;-58
2024/01/04 02:58:14;;;;;;;;;;;;;;;;;;5076744;28;861;-57
2024/01/04 03:00:39;;;;;;;;;;;;;;;;;;5077089;28;900;-56
2024/01/04 03:03:05;;;;;;;;;;;;;;;;;;5076535;28;1956;-56
2024/01/04 03:05:30;;;;;;;;;;;;;;;;;;5074728;28;875;-57
2024/01/04 03:07:55;;;;;;;;;;;;;;;;;;5076291;28;991;-57
2024/01/04 03:10:20;;;;;;;;;;;;;;;;;;5076386;28;931;-58
2024/01/04 03:12:46;;;;;;;;;;;;;;;;;;5058141;28;943;-58
2024/01/04 03:15:12;;;;;;;;;;;;;;;;;;5076691;28;948;-58
2024/01/04 03:17:37;;;;;;;;;;;;;;;;;;5076452;28;853;-58
2024/01/04 03:20:04;;;;;;;;;;;;;;;;;;5076008;28;913;-58
2024/01/04 03:22:29;;;;;;;;;;;;;;;;;;5075971;28;1914;-58
2024/01/04 03:24:54;;;;;;;;;;;;;;;;;;5076156;28;912;-58
2024/01/04 03:27:20;;;;;;;;;;;;;;;;;;5075484;28;998;-58
2024/01/04 03:29:45;;;;;;;;;;;;;;;;;;5076624;28;883;-58
2024/01/04 03:32:10;;;;;;;;;;;;;;;;;;5076037;28;1033;-58
2024/01/04 03:34:35;;;;;;;;;;;;;;;;;;5076608;28;1078;-56
2024/01/04 03:37:01;;;;;;;;;;;;;;;;;;5076775;28;891;-57
2024/01/04 03:39:27;;;;;;;;;;;;;;;;;;5076290;28;837;-57
2024/01/04 03:41:52;;;;;;;;;;;;;;;;;;5076173;28;1973;-57
2024/01/04 03:44:17;;;;;;;;;;;;;;;;;;5076189;28;999;-57
2024/01/04 03:46:43;;;;;;;;;;;;;;;;;;5076211;28;841;-58
2024/01/04 03:49:08;;;;;;;;;;;;;;;;;;5075900;28;992;-56
2024/01/04 03:51:33;;;;;;;;;;;;;;;;;;5075875;28;1046;-56
2024/01/04 03:53:59;;;;;;;;;;;;;;;;;;5075551;28;933;-58
2024/01/04 03:56:24;;;;;;;;;;;;;;;;;;5076027;28;812;-58
2024/01/04 03:58:50;;;;;;;;;;;;;;;;;;5075512;28;1046;-57
2024/01/04 04:01:15;;;;;;;;;;;;;;;;;;5075577;28;789;-58
2024/01/04 04:03:40;;;;;;;;;;;;;;;;;;5075169;28;1918;-58
2024/01/04 04:06:06;;;;;;;;;;;;;;;;;;5075358;28;838;-57
2024/01/04 04:08:31;;;;;;;;;;;;;;;;;;5074964;28;849;-58
2024/01/04 04:10:56;;;;;;;;;;;;;;;;;;5073833;28;1162;-57
2024/01/04 04:13:22;;;;;;;;;;;;;;;;;;5075596;28;832;-57
2024/01/04 04:15:47;;;;;;;;;;;;;;;;;;5074795;28;896;-57
2024/01/04 04:18:12;;;;;;;;;;;;;;;;;;5074596;28;864;-57
2024/01/04 04:20:38;;;;;;;;;;;;;;;;;;5075211;28;884;-57
2024/01/04 04:23:03;;;;;;;;;;;;;;;;;;5074850;28;2040;-58
2024/01/04 04:25:28;;;;;;;;;;;;;;;;;;5074742;28;995;-57
2024/01/04 04:27:54;;;;;;;;;;;;;;;;;;5075016;28;1018;-57
2024/01/04 04:30:19;;;;;;;;;;;;;;;;;;5074604;28;892;-57
2024/01/04 04:32:45;;;;;;;;;;;;;;;;;;5074329;28;935;-56
2024/01/04 04:35:10;;;;;;;;;;;;;;;;;;5074267;28;905;-56
2024/01/04 04:37:35;;;;;;;;;;;;;;;;;;5073996;28;955;-56
2024/01/04 04:40:00;;;;;;;;;;;;;;;;;;5074681;28;809;-56
2024/01/04 04:42:26;;;;;;;;;;;;;;;;;;5073998;28;1901;-57
2024/01/04 04:44:51;;;;;;;;;;;;;;;;;;5072997;28;936;-56
2024/01/04 04:47:16;;;;;;;;;;;;;;;;;;5074189;28;963;-56
2024/01/04 04:49:41;;;;;;;;;;;;;;;;;;5073841;28;1048;-56
2024/01/04 04:52:07;;;;;;;;;;;;;;;;;;5072791;28;1251;-57
2024/01/04 04:54:32;;;;;;;;;;;;;;;;;;5074202;28;874;-56
2024/01/04 04:56:57;;;;;;;;;;;;;;;;;;5073336;28;971;-57
2024/01/04 04:59:22;;;;;;;;;;;;;;;;;;5073928;28;1034;-56
2024/01/04 05:01:48;;;;;;;;;;;;;;;;;;5073845;28;1191;-56
2024/01/04 05:04:13;;;;;;;;;;;;;;;;;;5072243;28;1971;-56
2024/01/04 05:06:38;;;;;;;;;;;;;;;;;;5072456;28;853;-57
2024/01/04 05:09:04;;;;;;;;;;;;;;;;;;5072491;28;855;-58
2024/01/04 05:11:29;;;;;;;;;;;;;;;;;;5070824;28;1059;-57
2024/01/04 05:13:54;;;;;;;;;;;;;;;;;;5072314;28;903;-57
2024/01/04 05:16:19;;;;;;;;;;;;;;;;;;5072014;28;896;-56
2024/01/04 05:18:45;;;;;;;;;;;;;;;;;;5072779;28;805;-57
2024/01/04 05:21:10;;;;;;;;;;;;;;;;;;5074901;28;934;-56
2024/01/04 05:23:35;;;;;;;;;;;;;;;;;;5074301;28;1959;-56
2024/01/04 05:26:01;;;;;;;;;;;;;;;;;;5074104;28;1131;-56
2024/01/04 05:28:26;;;;;;;;;;;;;;;;;;5073977;28;801;-55
2024/01/04 05:30:52;;;;;;;;;;;;;;;;;;5073947;28;908;-56
2024/01/04 05:33:17;;;;;;;;;;;;;;;;;;5073737;28;821;-56
2024/01/04 05:35:42;;;;;;;;;;;;;;;;;;5073982;28;998;-56
2024/01/04 05:38:07;;;;;;;;;;;;;;;;;;5074297;28;959;-56
2024/01/04 05:40:33;;;;;;;;;;;;;;;;;;5074076;28;892;-56
2024/01/04 05:42:58;;;;;;;;;;;;;;;;;;5074124;28;1959;-57
2024/01/04 05:45:24;;;;;;;;;;;;;;;;;;5073636;28;864;-56
2024/01/04 05:47:49;;;;;;;;;;;;;;;;;;5074141;28;793;-58
2024/01/04 05:50:14;;;;;;;;;;;;;;;;;;5077082;28;824;-58
2024/01/04 05:52:40;;;;;;;;;;;;;;;;;;5078262;28;932;-57
2024/01/04 05:55:05;;;;;;;;;;;;;;;;;;5076691;28;1443;-59
2024/01/04 05:57:31;;;;;;;;;;;;;;;;;;5076453;28;1039;-57
2024/01/04 05:59:56;;;;;;;;;;;;;;;;;;5077687;28;899;-57
2024/01/04 06:02:22;;;;;;;;;;;;;;;;;;5077841;28;1951;-57
2024/01/04 06:04:47;;;;;;;;;;;;;;;;;;5077121;28;860;-57
2024/01/04 06:07:13;;;;;;;;;;;;;;;;;;5077356;28;939;-57
2024/01/04 06:09:38;;;;;;;;;;;;;;;;;;5077638;28;883;-57
2024/01/04 06:12:04;;;;;;;;;;;;;;;;;;5077438;28;948;-58
2024/01/04 06:14:30;;;;;;;;;;;;;;;;;;5077219;28;933;-58
2024/01/04 06:16:56;;;;;;;;;;;;;;;;;;5077404;28;859;-57
2024/01/04 06:19:21;;;;;;;;;;;;;;;;;;5077283;28;991;-57
2024/01/04 06:21:46;;;;;;;;;;;;;;;;;;5076056;28;853;-58
2024/01/04 06:24:12;;;;;;;;;;;;;;;;;;5077226;28;1979;-57
2024/01/04 06:26:37;;;;;;;;;;;;;;;;;;5077259;28;876;-57
2024/01/04 06:29:02;;;;;;;;;;;;;;;;;;5077108;28;876;-57
2024/01/04 06:31:28;;;;;;;;;;;;;;;;;;5076928;28;947;-57
2024/01/04 06:33:53;;;;;;;;;;;;;;;;;;5076876;28;872;-58
2024/01/04 06:36:18;;;;;;;;;;;;;;;;;;5076869;28;865;-58
2024/01/04 06:38:43;;;;;;;;;;;;;;;;;;5076928;28;1074;-57
2024/01/04 06:41:10;;;;;;;;;;;;;;;;;;5077029;28;963;-58
2024/01/04 06:43:36;;;;;;;;;;;;;;;;;;5076943;28;1973;-57
2024/01/04 06:46:01;;;;;;;;;;;;;;;;;;5076993;28;848;-58
2024/01/04 06:48:27;;;;;;;;;;;;;;;;;;5076927;28;860;-58
2024/01/04 06:50:52;;;;;;;;;;;;;;;;;;5076982;28;876;-58
2024/01/04 06:53:18;;;;;;;;;;;;;;;;;;5076114;28;944;-57
2024/01/04 06:55:45;;;;;;;;;;;;;;;;;;5077437;28;1012;-57
2024/01/04 06:58:11;;;;;;;;;;;;;;;;;;5076512;28;1254;-57
2024/01/04 07:00:36;;;;;;;;;;;;;;;;;;5075949;28;841;-57
2024/01/04 07:03:02;;;;;;;;;;;;;;;;;;5077852;28;1867;-57
2024/01/04 07:05:27;;;;;;;;;;;;;;;;;;5094681;28;1159;-57
2024/01/04 07:07:52;;;;;;;;;;;;;;;;;;5094856;28;947;-57
2024/01/04 07:10:18;;;;;;;;;;;;;;;;;;5095125;28;891;-57
2024/01/04 07:12:43;;;;;;;;;;;;;;;;;;5094783;28;1074;-58
2024/01/04 07:15:11;;;;;;;;;;;;;;;;;;5095532;28;824;-58
2024/01/04 07:17:37;;;;;;;;;;;;;;;;;;5094764;28;911;-58
2024/01/04 07:20:03;;;;;;;;;;;;;;;;;;5095580;28;923;-59
2024/01/04 07:22:28;;;;;;;;;;;;;;;;;;5096403;28;1937;-58
2024/01/04 07:24:55;;;;;;;;;;;;;;;;;;5096009;28;882;-58
2024/01/04 07:27:21;;;;;;;;;;;;;;;;;;5096328;28;833;-58
2024/01/04 07:29:46;;;;;;;;;;;;;;;;;;5096129;28;1069;-57
2024/01/04 07:32:11;;;;;;;;;;;;;;;;;;5091317;28;1373;-57
2024/01/04 07:34:38;;;;;;;;;;;;;;;;;;5076297;28;1135;-57
2024/01/04 07:37:04;;;;;;;;;;;;;;;;;;5076309;28;859;-57
2024/01/04 07:39:30;;;;;;;;;;;;;;;;;;5075638;28;987;-57
2024/01/04 07:41:55;;;;;;;;;;;;;;;;;;5075571;28;951;-58
2024/01/04 07:44:20;;;;;;;;;;;;;;;;;;5075578;28;1980;-58
2024/01/04 07:46:46;;;;;;;;;;;;;;;;;;5075416;28;880;-58
2024/01/04 07:49:12;;;;;;;;;;;;;;;;;;5075033;28;867;-58
2024/01/04 07:51:38;;;;;;;;;;;;;;;;;;5075562;28;864;-57
2024/01/04 07:54:04;;;;;;;;;;;;;;;;;;5075525;28;918;-58
2024/01/04 07:56:29;;;;;;;;;;;;;;;;;;5075096;28;833;-58
2024/01/04 07:58:54;;;;;;;;;;;;;;;;;;5075281;28;885;-58
2024/01/04 08:01:19;;;;;;;;;;;;;;;;;;5075156;28;813;-58
2024/01/04 08:03:45;;;;;;;;;;;;;;;;;;5074664;28;1940;-58
2024/01/04 08:06:10;;;;;;;;;;;;;;;;;;5072765;28;841;-60
2024/01/04 08:08:35;;;;;;;;;;;;;;;;;;5073468;28;935;-57
2024/01/04 08:11:01;;;;;;;;;;;;;;;;;;5072401;28;844;-58
2024/01/04 08:13:26;;;;;;;;;;;;;;;;;;5072043;28;830;-57
2024/01/04 08:15:52;;;;;;;;;;;;;;;;;;5072964;28;829;-57
2024/01/04 08:18:17;;;;;;;;;;;;;;;;;;5073025;28;868;-56
2024/01/04 08:20:42;;;;;;;;;;;;;;;;;;5074942;28;970;-58
2024/01/04 08:23:08;;;;;;;;;;;;;;;;;;5075098;28;1901;-59
2024/01/04 08:25:33;;;;;;;;;;;;;;;;;;5074177;28;1144;-58
2024/01/04 08:27:58;;;;;;;;;;;;;;;;;;5079490;28;1206;-58
2024/01/04 08:30:24;;;;;;;;;;;;;;;;;;5087852;28;1225;-59
2024/01/04 08:32:49;;;;;;;;;;;;;;;;;;5085935;28;1143;-58
2024/01/04 08:35:17;;;;;;;;;;;;;;;;;;5093481;28;820;-58
2024/01/04 08:37:44;;;;;;;;;;;;;;;;;;5093506;28;867;-57
2024/01/04 08:40:09;;;;;;;;;;;;;;;;;;5093211;28;816;-58
2024/01/04 08:42:34;;;;;;;;;;;;;;;;;;5094852;28;1914;-59
2024/01/04 08:45:00;;;;;;;;;;;;;;;;;;5094762;28;812;-58
2024/01/04 08:47:25;;;;;;;;;;;;;;;;;;5094940;28;875;-58
2024/01/04 08:49:50;;;;;;;;;;;;;;;;;;5094590;28;1118;-58
2024/01/04 08:52:16;;;;;;;;;;;;;;;;;;5094496;28;828;-57
2024/01/04 08:54:41;;;;;;;;;;;;;;;;;;5093702;28;1346;-58
2024/01/04 08:57:07;;;;;;;;;;;;;;;;;;5094653;28;1045;-58
2024/01/04 08:59:33;;;;;;;;;;;;;;;;;;5093411;28;860;-58
2024/01/04 09:01:59;;;;;;;;;;;;;;;;;;5094745;28;946;-58
2024/01/04 09:04:24;;;;;;;;;;;;;;;;;;5093727;28;1175;-58
2024/01/04 09:06:50;;;;;;;;;;;;;;;;;;5093225;28;939;-57
2024/01/04 09:09:15;;;;;;;;;;;;;;;;;;5092641;28;841;-58
2024/01/04 09:11:41;;;;;;;;;;;;;;;;;;5092824;28;849;-58
2024/01/04 09:14:11;;;;;;;;;;;;;;;;;;5093250;28;866;-57
2024/01/04 09:16:36;;;;;;;;;;;;;;;;;;5093233;28;840;-58
2024/01/04 09:19:02;;;;;;;;;;;;;;;;;;5093123;28;891;-58
2024/01/04 09:21:27;;;;;;;;;;;;;;;;;;5093265;28;884;-57
2024/01/04 09:23:52;;;;;;;;;;;;;;;;;;5093220;28;1894;-58
2024/01/04 09:26:18;;;;;;;;;;;;;;;;;;5093252;28;924;-58
2024/01/04 09:28:43;;;;;;;;;;;;;;;;;;5093637;28;884;-58
2024/01/04 09:31:08;;;;;;;;;;;;;;;;;;5093902;28;896;-57
2024/01/04 09:33:34;;;;;;;;;;;;;;;;;;5094057;28;986;-58
2024/01/04 09:36:00;;;;;;;;;;;;;;;;;;5094408;28;848;-57
2024/01/04 09:38:25;;;;;;;;;;;;;;;;;;5093849;28;848;-57
2024/01/04 09:40:51;;;;;;;;;;;;;;;;;;5093507;28;868;-56
2024/01/04 09:43:17;;;;;;;;;;;;;;;;;;5093643;28;1905;-58
2024/01/04 09:45:43;;;;;;;;;;;;;;;;;;5093999;28;891;-57
2024/01/04 09:48:10;;;;;;;;;;;;;;;;;;5093791;28;920;-56
2024/01/04 09:50:37;;;;;;;;;;;;;;;;;;5092421;28;1142;-56
2024/01/04 09:53:03;;;;;;;;;;;;;;;;;;5094088;28;1220;-56
2024/01/04 09:55:29;;;;;;;;;;;;;;;;;;5092408;28;1714;-56
2024/01/04 09:57:54;;;;;;;;;;;;;;;;;;5094018;28;1045;-55
2024/01/04 10:00:20;;;;;;;;;;;;;;;;;;5093924;28;884;-57
2024/01/04 10:02:45;;;;;;;;;;;;;;;;;;5092892;28;1905;-56
2024/01/04 10:05:15;;;;;;;;;;;;;;;;;;5073456;28;1176;-56
2024/01/04 10:07:43;;;;;;;;;;;;;;;;;;5072798;28;841;-57
2024/01/04 10:10:13;;;;;;;;;;;;;;;;;;5073477;28;1007;-57
2024/01/04 10:12:42;;;;;;;;;;;;;;;;;;5072321;28;933;-56
2024/01/04 10:15:08;;;;;;;;;;;;;;;;;;5072622;28;931;-56
2024/01/04 10:17:33;;;;;;;;;;;;;;;;;;5073933;28;825;-56
2024/01/04 10:19:59;;;;;;;;;;;;;;;;;;5074320;28;825;-56
2024/01/04 10:22:24;;;;;;;;;;;;;;;;;;5073547;28;1905;-57
2024/01/04 10:24:51;;;;;;;;;;;;;;;;;;5074073;28;837;-56
2024/01/04 10:27:16;;;;;;;;;;;;;;;;;;5074022;28;912;-56
2024/01/04 10:29:44;;;;;;;;;;;;;;;;;;5074343;28;884;-55
2024/01/04 10:32:11;;;;;;;;;;;;;;;;;;5074277;28;892;-56
2024/01/04 10:34:37;;;;;;;;;;;;;;;;;;5073715;28;912;-57
2024/01/04 10:37:12;;;;;;;;;;;;;;;;;;5077389;28;884;-57
2024/01/04 10:39:38;;;;;;;;;;;;;;;;;;5077547;28;947;-57
2024/01/04 10:42:05;;;;;;;;;;;;;;;;;;5076719;28;1901;-56
2024/01/04 10:44:33;;;;;;;;;;;;;;;;;;5076742;28;896;-56
2024/01/04 10:46:59;;;;;;;;;;;;;;;;;;5077026;28;887;-56
2024/01/04 10:49:25;;;;;;;;;;;;;;;;;;5075496;28;1091;-58
2024/01/04 10:51:52;;;;;;;;;;;;;;;;;;5075081;28;872;-56
2024/01/04 10:54:17;;;;;;;;;;;;;;;;;;5074953;28;1005;-57
2024/01/04 10:56:43;;;;;;;;;;;;;;;;;;5074596;28;833;-57
2024/01/04 10:59:09;;;;;;;;;;;;;;;;;;5074754;28;907;-58
2024/01/04 11:01:35;;;;;;;;;;;;;;;;;;5074941;28;792;-56
2024/01/04 11:04:01;;;;;;;;;;;;;;;;;;5075278;28;1910;-56
2024/01/04 11:06:28;;;;;;;;;;;;;;;;;;5075082;28;900;-57
2024/01/04 11:08:57;;;;;;;;;;;;;;;;;;5074412;28;892;-56
2024/01/04 11:11:24;;;;;;;;;;;;;;;;;;5074577;28;986;-57
2024/01/04 11:13:49;;;;;;;;;;;;;;;;;;5073803;28;1027;-57
2024/01/04 11:16:26;;;;;;;;;;;;;;;;;;5074516;28;975;-56
2024/01/04 11:19:10;;;;;;;;;;;;;;;;;;5074189;28;1007;-57
2024/01/04 11:21:50;;;;;;;;;;;;;;;;;;5074787;28;856;-56
2024/01/04 11:24:27;;;;;;;;;;;;;;;;;;5075954;28;1898;-56
2024/01/04 11:26:57;;;;;;;;;;;;;;;;;;5075761;28;879;-56
2024/01/04 11:29:23;;;;;;;;;;;;;;;;;;5075916;28;911;-56
2024/01/04 11:31:49;;;;;;;;;;;;;;;;;;5075722;28;856;-56
2024/01/04 11:34:14;;;;;;;;;;;;;;;;;;5076245;28;830;-57
2024/01/04 11:36:40;;;;;;;;;;;;;;;;;;5076083;28;841;-56
2024/01/04 11:39:05;;;;;;;;;;;;;;;;;;5076186;28;826;-58
2024/01/04 11:41:39;;;;;;;;;;;;;;;;;;5075878;28;908;-57
2024/01/04 11:44:14;;;;;;;;;;;;;;;;;;5076622;28;1914;-57
2024/01/04 11:46:41;;;;;;;;;;;;;;;;;;5074891;28;1175;-56
2024/01/04 11:49:06;;;;;;;;;;;;;;;;;;5076113;28;1057;-57
2024/01/04 11:51:33;;;;;;;;;;;;;;;;;;5076021;28;956;-56
2024/01/04 11:53:58;;;;;;;;;;;;;;;;;;5075918;28;932;-56
2024/01/04 11:56:24;;;;;;;;;;;;;;;;;;5075629;28;1126;-57
2024/01/04 11:58:49;;;;;;;;;;;;;;;;;;5075452;28;881;-56
2024/01/04 12:01:21;;;;;;;;;;;;;;;;;;5076169;28;864;-56
2024/01/04 12:03:46;;;;;;;;;;;;;;;;;;5075656;28;1898;-56
2024/01/04 12:06:12;;;;;;;;;;;;;;;;;;5075570;28;849;-56
2024/01/04 12:08:37;;;;;;;;;;;;;;;;;;5073867;28;864;-57
2024/01/04 12:11:05;;;;;;;;;;;;;;;;;;5073876;28;840;-57
2024/01/04 12:13:31;;;;;;;;;;;;;;;;;;5073554;28;817;-56
2024/01/04 12:15:57;;;;;;;;;;;;;;;;;;5073325;28;888;-57
2024/01/04 12:18:22;;;;;;;;;;;;;;;;;;5072987;28;892;-62
2024/01/04 12:20:48;;;;;;;;;;;;;;;;;;5073250;28;887;-57
2024/01/04 12:23:13;;;;;;;;;;;;;;;;;;5073914;28;1951;-57
2024/01/04 12:25:40;;;;;;;;;;;;;;;;;;5073459;28;957;-57
2024/01/04 12:28:05;;;;;;;;;;;;;;;;;;5075381;28;913;-57
2024/01/04 12:30:31;;;;;;;;;;;;;;;;;;5074540;28;813;-57
2024/01/04 12:32:56;;;;;;;;;;;;;;;;;;5075477;28;1006;-57
2024/01/04 12:35:22;;;;;;;;;;;;;;;;;;5074772;28;916;-56
2024/01/04 12:38:03;;;;;;;;;;;;;;;;;;5074900;28;880;-56
2024/01/04 12:40:36;;;;;;;;;;;;;;;;;;5074749;28;924;-56
2024/01/04 12:43:03;;;;;;;;;;;;;;;;;;5075048;28;1906;-56
2024/01/04 12:45:28;;;;;;;;;;;;;;;;;;5074617;28;816;-57
2024/01/04 12:47:59;;;;;;;;;;;;;;;;;;5074907;28;1230;-57
2024/01/04 12:50:27;;;;;;;;;;;;;;;;;;5074575;28;878;-57
2024/01/04 12:52:53;;;;;;;;;;;;;;;;;;5074795;28;812;-56
2024/01/04 12:55:18;;;;;;;;;;;;;;;;;;5075161;28;1261;-58
2024/01/04 12:57:43;;;;;;;;;;;;;;;;;;5072860;28;1334;-57
2024/01/04 13:00:09;;;;;;;;;;;;;;;;;;5074636;28;848;-57
2024/01/04 13:02:34;;;;;;;;;;;;;;;;;;5074699;28;1910;-57
2024/01/04 13:05:00;;;;;;;;;;;;;;;;;;5074967;28;828;-59
2024/01/04 13:07:25;;;;;;;;;;;;;;;;;;5074089;28;880;-58
2024/01/04 13:09:50;;;;;;;;;;;;;;;;;;5072630;28;860;-58
2024/01/04 13:12:15;;;;;;;;;;;;;;;;;;5072149;28;919;-60
2024/01/04 13:14:41;;;;;;;;;;;;;;;;;;5072040;28;789;-59
2024/01/04 13:17:06;;;;;;;;;;;;;;;;;;5072413;28;908;-61
2024/01/04 13:19:31;;;;;;;;;;;;;;;;;;5072121;28;899;-58
2024/01/04 13:21:57;;;;;;;;;;;;;;;;;;5072019;28;1206;-58
2024/01/04 13:24:22;;;;;;;;;;;;;;;;;;5073290;28;1894;-58
2024/01/04 13:26:47;;;;;;;;;;;;;;;;;;5074047;28;854;-58
2024/01/04 13:29:14;;;;;;;;;;;;;;;;;;5072779;28;852;-58
2024/01/04 13:31:40;;;;;;;;;;;;;;;;;;5074077;28;821;-58
2024/01/04 13:34:05;;;;;;;;;;;;;;;;;;5073957;28;891;-58
2024/01/04 13:36:30;;;;;;;;;;;;;;;;;;5072360;28;834;-59
2024/01/04 13:38:55;;;;;;;;;;;;;;;;;;5073765;28;908;-58
2024/01/04 13:41:20;;;;;;;;;;;;;;;;;;5073816;28;963;-58
2024/01/04 13:43:46;;;;;;;;;;;;;;;;;;5073696;28;1941;-58
2024/01/04 13:46:11;;;;;;;;;;;;;;;;;;5073603;28;1058;-58
2024/01/04 13:48:36;;;;;;;;;;;;;;;;;;5073416;28;841;-56
2024/01/04 13:51:02;;;;;;;;;;;;;;;;;;5073018;28;941;-58
2024/01/04 13:53:27;;;;;;;;;;;;;;;;;;5073435;28;1095;-57
2024/01/04 13:55:52;;;;;;;;;;;;;;;;;;5074003;28;903;-58
2024/01/04 13:58:18;;;;;;;;;;;;;;;;;;5073911;28;903;-59
2024/01/04 14:00:47;;;;;;;;;;;;;;;;;;5073504;28;854;-57
2024/01/04 14:03:12;;;;;;;;;;;;;;;;;;5071910;28;1922;-57
2024/01/04 14:05:38;;;;;;;;;;;;;;;;;;5073764;28;907;-58
2024/01/04 14:08:03;;;;;;;;;;;;;;;;;;5072581;28;904;-57
2024/01/04 14:10:28;;;;;;;;;;;;;;;;;;5073045;28;880;-57
2024/01/04 14:12:54;;;;;;;;;;;;;;;;;;5075673;28;990;-56
2024/01/04 14:15:22;;;;;;;;;;;;;;;;;;5074837;28;960;-57
2024/01/04 14:17:47;;;;;;;;;;;;;;;;;;5073770;28;1374;-56
2024/01/04 14:20:12;;;;;;;;;;;;;;;;;;5075192;28;816;-57
2024/01/04 14:22:38;;;;;;;;;;;;;;;;;;5075070;28;1910;-57
2024/01/04 14:25:03;;;;;;;;;;;;;;;;;;5075768;28;947;-56
2024/01/04 14:27:28;;;;;;;;;;;;;;;;;;5075410;28;1961;-56
2024/01/04 14:29:54;;;;;;;;;;;;;;;;;;5076833;28;899;-57
2024/01/04 14:32:19;;;;;;;;;;;;;;;;;;5076500;28;1010;-57
2024/01/04 14:34:45;;;;;;;;;;;;;;;;;;5076232;28;887;-57
2024/01/04 14:37:10;;;;;;;;;;;;;;;;;;5076789;28;1064;-56
2024/01/04 14:39:38;;;;;;;;;;;;;;;;;;5076557;28;916;-57
2024/01/04 14:42:03;;;;;;;;;;;;;;;;;;5076800;28;907;-57
2024/01/04 14:44:28;;;;;;;;;;;;;;;;;;5076705;28;1886;-56
2024/01/04 14:46:54;;;;;;;;;;;;;;;;;;5076467;28;911;-56
2024/01/04 14:49:20;;;;;;;;;;;;;;;;;;5076591;28;883;-61
2024/01/04 14:51:46;;;;;;;;;;;;;;;;;;5076207;28;922;-57
2024/01/04 14:54:11;;;;;;;;;;;;;;;;;;5076813;28;893;-60
2024/01/04 14:56:37;;;;;;;;;;;;;;;;;;5077267;28;967;-57
2024/01/04 14:59:03;;;;;;;;;;;;;;;;;;5076629;28;856;-56
2024/01/04 15:01:28;;;;;;;;;;;;;;;;;;5076392;28;860;-57
2024/01/04 15:03:55;;;;;;;;;;;;;;;;;;5076551;28;1963;-56
2024/01/04 15:06:20;;;;;;;;;;;;;;;;;;5075970;28;836;-56
2024/01/04 15:08:45;;;;;;;;;;;;;;;;;;5076164;28;805;-56
2024/01/04 15:11:11;;;;;;;;;;;;;;;;;;5075447;28;866;-55
2024/01/04 15:13:36;;;;;;;;;;;;;;;;;;5074718;28;820;-59
2024/01/04 15:16:02;;;;;;;;;;;;;;;;;;5074259;28;967;-58
2024/01/04 15:18:27;;;;;;;;;;;;;;;;;;5074255;28;907;-57
2024/01/04 15:20:52;;;;;;;;;;;;;;;;;;5073678;28;1028;-57
2024/01/04 15:23:18;;;;;;;;;;;;;;;;;;5073775;28;1945;-57
2024/01/04 15:25:44;;;;;;;;;;;;;;;;;;5075355;28;817;-57
2024/01/04 15:28:10;;;;;;;;;;;;;;;;;;5076034;28;814;-58
2024/01/04 15:30:36;;;;;;;;;;;;;;;;;;5076109;28;944;-58
2024/01/04 15:33:01;;;;;;;;;;;;;;;;;;5074956;28;928;-58
2024/01/04 15:35:28;;;;;;;;;;;;;;;;;;5076377;28;955;-58
2024/01/04 15:37:53;;;;;;;;;;;;;;;;;;5076021;28;892;-58
2024/01/04 15:40:19;;;;;;;;;;;;;;;;;;5075659;28;892;-57
2024/01/04 15:42:44;;;;;;;;;;;;;;;;;;5075770;28;1894;-57
2024/01/04 15:45:09;;;;;;;;;;;;;;;;;;5075701;28;995;-57
2024/01/04 15:47:35;;;;;;;;;;;;;;;;;;5076131;28;931;-58
2024/01/04 15:50:00;;;;;;;;;;;;;;;;;;5075263;28;844;-58
2024/01/04 15:52:25;;;;;;;;;;;;;;;;;;5074975;28;1028;-58
2024/01/04 15:54:51;;;;;;;;;;;;;;;;;;5074540;28;1147;-58
2024/01/04 15:57:16;;;;;;;;;;;;;;;;;;5074928;28;903;-58
2024/01/04 15:59:41;;;;;;;;;;;;;;;;;;5074503;28;1169;-58
2024/01/04 16:02:06;;;;;;;;;;;;;;;;;;5075298;28;829;-58
2024/01/04 16:04:32;;;;;;;;;;;;;;;;;;5074420;28;1953;-58
2024/01/04 16:06:57;;;;;;;;;;;;;;;;;;5074541;28;872;-58
2024/01/04 16:09:24;;;;;;;;;;;;;;;;;;5074621;28;1083;-58
2024/01/04 16:11:49;;;;;;;;;;;;;;;;;;5074234;28;845;-58
2024/01/04 16:14:15;;;;;;;;;;;;;;;;;;5074615;28;888;-58
2024/01/04 16:16:40;;;;;;;;;;;;;;;;;;5073286;28;1191;-58
2024/01/04 16:19:05;;;;;;;;;;;;;;;;;;5075010;28;837;-61
2024/01/04 16:21:31;;;;;;;;;;;;;;;;;;5074618;28;844;-58
2024/01/04 16:23:56;;;;;;;;;;;;;;;;;;5074727;28;1941;-58
2024/01/04 16:26:21;;;;;;;;;;;;;;;;;;5074662;28;938;-58
2024/01/04 16:28:47;;;;;;;;;;;;;;;;;;5073645;28;797;-57
2024/01/04 16:31:12;;;;;;;;;;;;;;;;;;5074590;28;848;-58
2024/01/04 16:33:37;;;;;;;;;;;;;;;;;;5073959;28;987;-60
2024/01/04 16:36:06;;;;;;;;;;;;;;;;;;5074643;28;916;-57
2024/01/04 16:38:31;;;;;;;;;;;;;;;;;;5073721;28;837;-57
2024/01/04 16:40:58;;;;;;;;;;;;;;;;;;5071873;28;793;-59
2024/01/04 16:43:25;;;;;;;;;;;;;;;;;;5072286;28;1954;-57
2024/01/04 16:45:51;;;;;;;;;;;;;;;;;;5072372;28;910;-58
2024/01/04 16:48:16;;;;;;;;;;;;;;;;;;5072178;28;1082;-57
2024/01/04 16:50:41;;;;;;;;;;;;;;;;;;5072191;28;809;-59
2024/01/04 16:53:08;;;;;;;;;;;;;;;;;;5072717;28;880;-59
2024/01/04 16:55:33;;;;;;;;;;;;;;;;;;5072978;28;1032;-58
2024/01/04 16:57:58;;;;;;;;;;;;;;;;;;5072782;28;912;-60
2024/01/04 17:00:24;;;;;;;;;;;;;;;;;;5072898;28;941;-58
2024/01/04 17:02:50;;;;;;;;;;;;;;;;;;5073463;28;1963;-58
2024/01/04 17:05:15;;;;;;;;;;;;;;;;;;5073739;28;836;-58